Terminal Aerodrome Forecast
Issued by NWS

Home | Current Version | Previous Version | Text Only | Print | Product List | Glossary On
Versions: 1 2 3 4 5 6 7 8 9 10 11 12 13
000
FTUS45 KRIW 300500
TAFLND
TAF
KLND 300525Z 3006/3106 VRB04KT P6SM SCT250
     FM301900 VRB05KT P6SM SCT070
     FM302300 VRB05KT P6SM VCSH BKN070
     FM310200 24006KT P6SM SCT080=

USA.gov is the U.S. government's official web portal to all federal, state and local government web resources and services.